Time;durP1;ratioP1;P1;durP2;ratioP2;P2;SDS_P1;SDS_P2;PMS_P1;PMS_P2;Temp;Humidity;BMP_temperature;BMP_pressure;BME280_temperature;BME280_humidity;BME280_pressure;Samples;Min_cycle;Max_cycle;Signal;HPM_P1;HPM_P2
2022/04/21 00:00:12;;;;;;;11.50;4.25;;;9.90;95.40;;;;;;4957780;28;20654;-89
2022/04/21 00:02:37;;;;;;;9.98;4.10;;;9.90;95.30;;;;;;4972942;28;20093;-90
2022/04/21 00:05:04;;;;;;;9.18;4.40;;;9.90;95.30;;;;;;4957538;28;20420;-89
2022/04/21 00:07:29;;;;;;;9.15;4.45;;;9.80;95.60;;;;;;4958057;28;20500;-89
2022/04/21 00:09:55;;;;;;;9.40;4.25;;;9.80;95.80;;;;;;4957373;28;20039;-89
2022/04/21 00:12:21;;;;;;;10.70;4.72;;;9.70;95.90;;;;;;4957683;28;20416;-90
2022/04/21 00:14:46;;;;;;;10.85;4.80;;;9.60;96.00;;;;;;4973786;28;20043;-89
2022/04/21 00:17:12;;;;;;;11.23;4.88;;;9.60;96.10;;;;;;4973775;28;20074;-89
2022/04/21 00:19:38;;;;;;;9.88;4.70;;;9.50;96.20;;;;;;4957378;28;20656;-89
2022/04/21 00:24:48;;;;;;;10.43;4.30;;;9.50;96.50;;;;;;4973653;28;20042;-89
2022/04/21 00:27:14;;;;;;;9.18;4.32;;;9.50;96.50;;;;;;4973362;28;20386;-89
2022/04/21 00:29:40;;;;;;;11.10;4.63;;;9.50;96.60;;;;;;4973320;28;20047;-89
2022/04/21 00:32:05;;;;;;;12.00;5.78;;;9.40;96.80;;;;;;4973171;28;20050;-89
2022/04/21 00:34:35;;;;;;;10.15;4.43;;;9.40;97.00;;;;;;4973542;28;20042;-89
2022/04/21 00:37:01;;;;;;;10.20;4.07;;;9.40;97.30;;;;;;4973210;28;20035;-90
2022/04/21 00:39:27;;;;;;;12.85;4.72;;;9.40;97.00;;;;;;4973216;28;20057;-89
2022/04/21 00:41:57;;;;;;;9.25;4.22;;;9.40;97.10;;;;;;4973061;28;20047;-89
2022/04/21 00:44:23;;;;;;;8.80;4.05;;;9.40;97.20;;;;;;4956969;28;20035;-90
2022/04/21 00:46:49;;;;;;;14.70;4.50;;;9.30;97.20;;;;;;4956888;28;20053;-89
2022/04/21 00:49:16;;;;;;;10.00;4.90;;;9.30;97.30;;;;;;4973185;28;20045;-89
2022/04/21 00:51:42;;;;;;;9.10;4.57;;;9.20;97.30;;;;;;4972953;28;20408;-89
2022/04/21 00:54:07;;;;;;;8.80;4.18;;;9.20;97.40;;;;;;4956890;28;20518;-89
2022/04/21 00:56:33;;;;;;;10.43;4.63;;;9.10;97.50;;;;;;4972981;28;20035;-89
2022/04/21 00:59:01;;;;;;;10.82;4.53;;;9.00;97.50;;;;;;4972841;28;20412;-89
2022/04/21 01:04:13;;;;;;;10.15;4.85;;;8.90;97.70;;;;;;4972776;28;20138;-89
2022/04/21 01:06:38;;;;;;;12.15;4.63;;;8.80;97.80;;;;;;4972766;28;20133;-89
2022/04/21 01:09:04;;;;;;;10.82;4.63;;;8.80;97.90;;;;;;4956585;28;20039;-89
2022/04/21 01:11:30;;;;;;;11.10;5.07;;;8.80;98.10;;;;;;4955967;28;20047;-89
2022/04/21 01:13:56;;;;;;;9.18;4.53;;;8.70;98.20;;;;;;4956388;28;20042;-89
2022/04/21 01:16:21;;;;;;;9.75;4.85;;;8.70;98.30;;;;;;4972667;28;20038;-89
2022/04/21 01:18:47;;;;;;;9.65;4.40;;;8.70;98.40;;;;;;4972316;28;20121;-89
2022/04/21 01:21:12;;;;;;;10.35;4.55;;;8.70;98.40;;;;;;4972140;28;20081;-89
2022/04/21 01:23:38;;;;;;;10.15;4.40;;;8.70;98.60;;;;;;4972519;28;20082;-89
2022/04/21 01:26:04;;;;;;;9.35;4.63;;;8.70;98.70;;;;;;4972291;28;20101;-89
2022/04/21 01:28:30;;;;;;;9.18;4.45;;;8.60;98.80;;;;;;4972414;28;20049;-88
2022/04/21 01:30:59;;;;;;;11.32;4.28;;;8.60;98.90;;;;;;4972136;28;20042;-89
2022/04/21 01:33:25;;;;;;;9.32;4.32;;;8.60;99.20;;;;;;4956190;28;20039;-89
2022/04/21 01:35:50;;;;;;;11.38;4.40;;;8.60;99.10;;;;;;4972328;28;20120;-88
2022/04/21 01:41:08;;;;;;;16.23;5.18;;;8.50;99.40;;;;;;4971520;28;20051;-89
2022/04/21 01:43:35;;;;;;;9.52;4.72;;;8.50;99.90;;;;;;4972444;28;20669;-89
2022/04/21 01:46:01;;;;;;;10.52;5.00;;;8.60;99.90;;;;;;4956051;28;20124;-89
2022/04/21 01:48:26;;;;;;;10.80;5.03;;;8.60;99.90;;;;;;4956086;28;20070;-89
2022/04/21 01:50:52;;;;;;;9.20;5.28;;;8.60;99.90;;;;;;4971737;28;20031;-89
2022/04/21 01:53:18;;;;;;;13.88;5.70;;;8.60;99.90;;;;;;4955870;28;20473;-89
2022/04/21 01:55:43;;;;;;;10.55;5.15;;;8.60;99.90;;;;;;4956138;28;20093;-89
2022/04/21 01:58:09;;;;;;;10.35;5.07;;;8.60;99.90;;;;;;4972051;28;20125;-89
2022/04/21 02:00:35;;;;;;;11.68;5.28;;;8.60;99.90;;;;;;4971678;28;20039;-89
2022/04/21 02:03:00;;;;;;;10.73;5.35;;;8.60;99.90;;;;;;4955929;28;20039;-89
2022/04/21 02:05:26;;;;;;;12.73;6.03;;;8.60;99.90;;;;;;4955728;28;20407;-89
2022/04/21 02:07:52;;;;;;;11.52;5.45;;;8.60;99.90;;;;;;4955706;28;20038;-89
2022/04/21 02:10:19;;;;;;;11.32;5.65;;;8.60;99.90;;;;;;4971471;28;20199;-89
2022/04/21 02:12:45;;;;;;;10.45;5.72;;;8.70;99.90;;;;;;4955936;28;20593;-89
2022/04/21 02:15:11;;;;;;;11.82;5.85;;;8.60;99.90;;;;;;4955754;28;20090;-89
2022/04/21 02:17:38;;;;;;;10.15;5.10;;;8.60;99.90;;;;;;4971694;28;20039;-89
2022/04/21 02:20:06;;;;;;;11.68;5.53;;;8.70;99.90;;;;;;4955443;28;20042;-89
2022/04/21 02:22:32;;;;;;;10.38;5.80;;;8.60;99.90;;;;;;4971315;28;20071;-89
2022/04/21 02:24:58;;;;;;;11.10;5.38;;;8.60;99.90;;;;;;4955450;28;20078;-89
2022/04/21 02:27:23;;;;;;;11.48;6.07;;;8.60;99.90;;;;;;4974475;28;20082;-89
2022/04/21 02:29:49;;;;;;;11.98;5.82;;;8.60;99.90;;;;;;4959598;28;20034;-90
2022/04/21 02:32:15;;;;;;;11.82;5.45;;;8.60;99.90;;;;;;4975511;28;20046;-90
2022/04/21 02:34:41;;;;;;;13.02;6.22;;;8.60;99.90;;;;;;4959514;28;20085;-89
2022/04/21 02:37:07;;;;;;;12.13;5.82;;;8.60;99.90;;;;;;4959657;28;20042;-89
2022/04/21 02:39:33;;;;;;;15.00;5.90;;;8.60;99.90;;;;;;4975946;28;20597;-89
2022/04/21 02:41:59;;;;;;;12.15;6.13;;;8.60;99.90;;;;;;4974959;28;20055;-90
2022/04/21 02:44:24;;;;;;;11.93;6.28;;;8.60;99.90;;;;;;4975486;28;20043;-89
2022/04/21 02:46:50;;;;;;;11.32;6.15;;;8.50;99.90;;;;;;4959190;28;20181;-89
2022/04/21 02:49:16;;;;;;;13.73;5.85;;;8.50;99.90;;;;;;4975312;28;20408;-89
2022/04/21 02:51:42;;;;;;;10.82;6.20;;;8.50;99.90;;;;;;4958753;28;20136;-89
2022/04/21 02:59:36;;;;;;;12.98;6.03;;;8.50;99.90;;;;;;4975112;28;20046;-89
2022/04/21 03:02:02;;;;;;;10.93;5.65;;;8.50;99.90;;;;;;4974926;28;20672;-89
2022/04/21 03:04:27;;;;;;;11.45;6.22;;;8.50;99.90;;;;;;4959000;28;20051;-89
2022/04/21 03:06:53;;;;;;;10.77;5.85;;;8.40;99.90;;;;;;4965798;28;20019;-89
2022/04/21 03:09:18;;;;;;;11.05;6.00;;;8.40;99.90;;;;;;5001101;28;20049;-89
2022/04/21 03:11:44;;;;;;;10.98;6.18;;;8.40;99.90;;;;;;4995126;28;20156;-90
2022/04/21 03:14:09;;;;;;;11.88;6.22;;;8.40;99.90;;;;;;4995682;28;20101;-89
2022/04/21 03:16:35;;;;;;;12.70;5.82;;;8.40;99.90;;;;;;4994949;28;20069;-89
2022/04/21 03:19:01;;;;;;;10.85;5.80;;;8.40;99.90;;;;;;4978388;28;20481;-89
2022/04/21 03:24:20;;;;;;;10.68;6.07;;;8.40;99.90;;;;;;4971653;28;20122;-89
2022/04/21 03:26:48;;;;;;;11.77;5.82;;;8.40;99.90;;;;;;4994329;28;20046;-89
2022/04/21 03:29:14;;;;;;;11.02;5.80;;;8.40;99.90;;;;;;4994195;28;20038;-89
2022/04/21 03:31:42;;;;;;;13.30;6.55;;;8.40;99.90;;;;;;4977284;28;20531;-89
2022/04/21 03:34:09;;;;;;;11.18;5.97;;;8.30;99.90;;;;;;4993930;28;20038;-89
2022/04/21 03:36:34;;;;;;;14.52;6.50;;;8.30;99.90;;;;;;4977548;28;20038;-89
2022/04/21 03:39:00;;;;;;;10.23;5.78;;;8.30;99.90;;;;;;4993887;28;20046;-89
2022/04/21 03:41:25;;;;;;;11.95;6.78;;;8.20;99.90;;;;;;4993493;28;20502;-89
2022/04/21 03:43:51;;;;;;;11.80;5.85;;;8.20;99.90;;;;;;4977456;28;20510;-89
2022/04/21 03:46:17;;;;;;;12.25;6.13;;;8.10;99.90;;;;;;4993640;28;20126;-89
2022/04/21 03:48:42;;;;;;;11.30;6.07;;;8.00;99.90;;;;;;4993712;28;20458;-89
2022/04/21 03:51:10;;;;;;;11.10;6.25;;;8.00;99.90;;;;;;4977039;28;20392;-89
2022/04/21 03:53:35;;;;;;;10.98;6.15;;;8.00;99.90;;;;;;4977361;28;20042;-89
2022/04/21 03:56:01;;;;;;;12.57;6.85;;;8.00;99.90;;;;;;4977113;28;20042;-89
2022/04/21 03:58:27;;;;;;;19.88;7.28;;;8.00;99.90;;;;;;4993374;28;20420;-89
2022/04/21 04:00:52;;;;;;;14.80;7.00;;;8.00;99.90;;;;;;4993039;28;20133;-89
2022/04/21 04:03:18;;;;;;;14.13;7.25;;;8.00;99.90;;;;;;4993380;28;20042;-89
2022/04/21 04:05:43;;;;;;;13.40;6.55;;;8.00;99.90;;;;;;4993291;28;20042;-89
2022/04/21 04:10:53;;;;;;;13.68;7.32;;;7.90;99.90;;;;;;4992886;28;20486;-89
2022/04/21 04:13:27;;;;;;;14.98;7.57;;;7.80;99.90;;;;;;4993203;28;20043;-89
2022/04/21 04:15:54;;;;;;;13.55;6.63;;;7.80;99.90;;;;;;4993137;28;20598;-89
2022/04/21 04:18:21;;;;;;;12.48;6.70;;;7.80;99.90;;;;;;4993162;28;20606;-89
2022/04/21 04:20:47;;;;;;;15.85;7.13;;;7.70;99.90;;;;;;4992715;28;20414;-89
2022/04/21 04:23:20;;;;;;;12.52;6.57;;;7.70;99.90;;;;;;4992863;28;20472;-89
2022/04/21 04:25:46;;;;;;;13.40;7.32;;;7.70;99.90;;;;;;4992971;28;20128;-89
2022/04/21 04:28:11;;;;;;;13.13;6.93;;;7.70;99.90;;;;;;4977018;28;20504;-88
2022/04/21 04:30:40;;;;;;;12.18;6.95;;;7.70;99.90;;;;;;4992404;28;20491;-89
2022/04/21 04:33:06;;;;;;;13.40;6.75;;;7.70;99.90;;;;;;4976670;28;20048;-88
2022/04/21 04:35:31;;;;;;;14.23;7.93;;;7.60;99.90;;;;;;4976732;28;20046;-89
2022/04/21 04:37:58;;;;;;;12.88;6.50;;;7.60;99.90;;;;;;4976319;28;20049;-89
2022/04/21 04:40:25;;;;;;;12.70;7.00;;;7.60;99.90;;;;;;4992658;28;20491;-89
2022/04/21 04:42:53;;;;;;;12.50;6.40;;;7.50;99.90;;;;;;4992466;28;20047;-89
2022/04/21 04:48:04;;;;;;;10.75;6.22;;;7.40;99.90;;;;;;4992479;28;20046;-89
2022/04/21 04:50:29;;;;;;;12.35;6.25;;;7.40;99.90;;;;;;4991337;28;20031;-88
2022/04/21 04:52:59;;;;;;;11.40;6.10;;;7.40;99.90;;;;;;4992423;28;20080;-89
2022/04/21 04:55:26;;;;;;;12.30;6.57;;;7.40;99.90;;;;;;4976346;28;20042;-88
2022/04/21 04:57:51;;;;;;;11.65;6.53;;;7.40;99.90;;;;;;4992385;28;20522;-89
2022/04/21 05:00:18;;;;;;;12.82;6.68;;;7.40;99.90;;;;;;4976040;28;20038;-89
2022/04/21 05:02:44;;;;;;;12.63;7.05;;;7.40;99.90;;;;;;4975907;28;20070;-89
2022/04/21 05:05:11;;;;;;;12.77;7.18;;;7.40;99.90;;;;;;4992073;28;20042;-89
2022/04/21 05:07:39;;;;;;;11.40;6.40;;;7.40;99.90;;;;;;4992233;28;20034;-89
2022/04/21 05:10:06;;;;;;;13.38;7.13;;;7.40;99.90;;;;;;4992161;28;20046;-89
2022/04/21 05:12:31;;;;;;;13.02;6.75;;;7.40;99.90;;;;;;4991991;28;20050;-89
2022/04/21 05:14:58;;;;;;;11.98;6.10;;;7.40;99.90;;;;;;4992230;28;20039;-89
2022/04/21 05:17:24;;;;;;;12.85;7.45;;;7.40;99.90;;;;;;4975910;28;20499;-88
2022/04/21 05:19:50;;;;;;;13.07;6.50;;;7.50;99.90;;;;;;4975489;28;20131;-89
2022/04/21 05:22:16;;;;;;;12.82;7.47;;;7.50;99.90;;;;;;4991957;28;20077;-89
2022/04/21 05:24:46;;;;;;;11.10;6.70;;;7.50;99.90;;;;;;4992162;28;20042;-89
2022/04/21 05:27:12;;;;;;;14.23;7.38;;;7.60;99.90;;;;;;4976038;28;20089;-89
2022/04/21 05:32:26;;;;;;;12.65;6.80;;;7.60;99.90;;;;;;4991672;28;20129;-89
2022/04/21 05:34:52;;;;;;;13.93;7.57;;;7.70;99.90;;;;;;4975473;28;20534;-88
2022/04/21 05:37:18;;;;;;;12.30;7.15;;;7.70;99.90;;;;;;4975531;28;20038;-89
2022/04/21 05:39:44;;;;;;;13.50;7.47;;;7.70;99.90;;;;;;4975714;28;20038;-88
2022/04/21 05:42:20;;;;;;;14.13;6.68;;;7.80;99.90;;;;;;4974934;28;20479;-89
2022/04/21 05:44:46;;;;;;;12.98;7.50;;;7.80;99.90;;;;;;4991625;28;20089;-88
2022/04/21 05:47:12;;;;;;;14.52;7.75;;;7.90;99.90;;;;;;4991415;28;20046;-88
2022/04/21 05:49:38;;;;;;;13.32;7.45;;;7.90;99.90;;;;;;4991660;28;20035;-89
2022/04/21 05:52:06;;;;;;;14.93;7.47;;;8.00;99.90;;;;;;4990996;28;20092;-89
2022/04/21 05:54:32;;;;;;;13.38;7.22;;;8.10;99.90;;;;;;4991417;28;20086;-89
2022/04/21 05:56:58;;;;;;;12.65;7.38;;;8.20;99.90;;;;;;4991528;28;20116;-89
2022/04/21 05:59:23;;;;;;;13.07;7.57;;;8.20;99.90;;;;;;4975134;28;20034;-89
2022/04/21 06:01:49;;;;;;;12.63;7.35;;;8.30;99.90;;;;;;4974679;28;20042;-89
2022/04/21 06:04:14;;;;;;;13.10;6.82;;;8.40;99.90;;;;;;4991315;28;20046;-88
2022/04/21 06:06:40;;;;;;;11.20;5.90;;;8.40;99.90;;;;;;4991225;28;20038;-88
2022/04/21 06:09:05;;;;;;;13.23;7.30;;;8.40;99.90;;;;;;4975016;28;20042;-89
2022/04/21 06:11:33;;;;;;;11.90;7.07;;;8.50;99.90;;;;;;4990529;28;20049;-89
2022/04/21 06:13:58;;;;;;;13.98;6.88;;;8.60;99.90;;;;;;4975127;28;20074;-88
2022/04/21 06:16:24;;;;;;;13.25;6.50;;;8.70;99.90;;;;;;4991296;28;20479;-89
2022/04/21 06:18:50;;;;;;;11.45;6.72;;;8.70;99.90;;;;;;4991077;28;20539;-89
2022/04/21 06:21:16;;;;;;;12.13;6.93;;;8.80;99.90;;;;;;4990686;28;20038;-89
2022/04/21 06:23:41;;;;;;;13.32;7.45;;;8.90;99.90;;;;;;4991031;28;20462;-89
2022/04/21 06:26:07;;;;;;;11.25;6.72;;;8.90;99.90;;;;;;4990804;28;20423;-88
2022/04/21 06:28:35;;;;;;;12.15;6.70;;;9.00;99.90;;;;;;4975097;28;20510;-88
2022/04/21 06:31:01;;;;;;;10.95;5.90;;;9.20;99.90;;;;;;4988091;28;20517;-88
2022/04/21 06:33:30;;;;;;;11.73;6.25;;;9.20;99.90;;;;;;4990636;28;20038;-89
2022/04/21 06:35:56;;;;;;;11.25;5.72;;;9.30;99.90;;;;;;4990522;28;20055;-89
2022/04/21 06:38:22;;;;;;;11.00;5.95;;;9.40;99.90;;;;;;4990747;28;20038;-88
2022/04/21 06:40:47;;;;;;;10.00;5.25;;;9.50;99.90;;;;;;4989959;28;20046;-88
2022/04/21 06:48:42;;;;;;;10.25;4.60;;;9.90;99.90;;;;;;4990856;28;20065;-88
2022/04/21 06:51:08;;;;;;;10.07;4.57;;;10.00;99.90;;;;;;4973974;28;20567;-88
2022/04/21 06:53:34;;;;;;;10.15;4.60;;;10.10;99.90;;;;;;4974444;28;20034;-89
2022/04/21 06:56:01;;;;;;;10.27;4.35;;;10.20;99.90;;;;;;4974364;28;20132;-88
2022/04/21 06:58:27;;;;;;;10.02;4.32;;;10.30;99.60;;;;;;4974231;28;20042;-88
2022/04/21 07:00:52;;;;;;;8.88;3.67;;;10.40;99.30;;;;;;4973877;28;20129;-88
2022/04/21 07:03:18;;;;;;;11.05;4.40;;;10.50;98.80;;;;;;4974696;28;20384;-89
2022/04/21 07:05:44;;;;;;;9.25;4.30;;;10.60;98.60;;;;;;4990373;28;20670;-88
2022/04/21 07:08:10;;;;;;;8.43;3.97;;;10.70;97.90;;;;;;4990862;28;20098;-88
2022/04/21 07:10:36;;;;;;;11.13;4.10;;;10.90;97.60;;;;;;4990190;28;20618;-88
2022/04/21 07:13:11;;;;;;;11.05;3.67;;;10.90;97.10;;;;;;4976662;28;20513;-88
2022/04/21 07:15:38;;;;;;;8.75;3.45;;;11.00;96.60;;;;;;4977846;28;20526;-88
2022/04/21 07:18:04;;;;;;;8.30;3.78;;;11.10;96.50;;;;;;4994104;28;20042;-89
2022/04/21 07:20:30;;;;;;;8.35;3.45;;;11.30;96.00;;;;;;4976899;28;20062;-89
2022/04/21 07:22:56;;;;;;;8.52;3.53;;;11.40;95.20;;;;;;4993906;28;20046;-89
2022/04/21 07:25:21;;;;;;;9.85;3.58;;;11.50;94.80;;;;;;4994144;28;20043;-89
2022/04/21 07:27:47;;;;;;;7.63;3.30;;;11.60;93.90;;;;;;4977666;28;20514;-89
2022/04/21 07:30:13;;;;;;;10.60;4.25;;;11.70;93.60;;;;;;4993791;28;20507;-91
2022/04/21 07:32:38;;;;;;;7.95;3.53;;;11.80;93.10;;;;;;4993848;28;20042;-89
2022/04/21 07:35:05;;;;;;;8.50;3.50;;;11.90;92.90;;;;;;4993735;28;20042;-89
2022/04/21 07:37:32;;;;;;;9.05;3.47;;;12.00;92.60;;;;;;4994060;28;20050;-89
2022/04/21 07:39:58;;;;;;;8.13;3.22;;;12.10;91.90;;;;;;4976906;28;20038;-89
2022/04/21 07:42:24;;;;;;;15.48;3.47;;;12.20;91.40;;;;;;4993726;28;20038;-90
2022/04/21 07:44:51;;;;;;;8.15;3.40;;;12.30;90.70;;;;;;4993881;28;20042;-89
2022/04/21 07:47:16;;;;;;;8.20;3.15;;;12.40;89.70;;;;;;4993496;28;20092;-89
2022/04/21 07:49:45;;;;;;;8.02;3.00;;;12.50;88.10;;;;;;4993822;28;20042;-90
2022/04/21 07:55:04;;;;;;;8.65;4.10;;;12.60;84.40;;;;;;4992150;28;20046;-90
2022/04/21 07:57:30;;;;;;;8.88;3.42;;;12.70;84.90;;;;;;4993816;28;20129;-90
2022/04/21 07:59:55;;;;;;;9.43;3.20;;;12.80;84.80;;;;;;5004132;28;20049;-89
2022/04/21 08:02:21;;;;;;;7.32;3.20;;;12.90;84.20;;;;;;5002277;28;20066;-90
2022/04/21 08:04:47;;;;;;;7.55;3.40;;;13.00;82.20;;;;;;4987415;28;20038;-90
2022/04/21 08:07:13;;;;;;;7.93;3.22;;;13.10;80.00;;;;;;5027176;28;20413;-89
2022/04/21 08:09:38;;;;;;;6.35;2.95;;;13.20;78.90;;;;;;5002878;28;20491;-90
2022/04/21 08:12:05;;;;;;;8.00;3.00;;;13.30;79.20;;;;;;5027676;28;20525;-88
2022/04/21 08:14:30;;;;;;;8.63;2.75;;;13.30;78.10;;;;;;4988109;28;20058;-90
2022/04/21 08:16:56;;;;;;;9.13;2.80;;;13.40;78.70;;;;;;4995983;28;20434;-90
2022/04/21 08:19:21;;;;;;;6.97;2.88;;;13.50;76.80;;;;;;5000830;28;20061;-90
2022/04/21 08:21:47;;;;;;;7.57;3.03;;;13.60;76.00;;;;;;5001150;28;20038;-89
2022/04/21 08:32:44;;;;;;;9.75;2.90;;;14.00;72.90;;;;;;5002359;28;20072;-89
2022/04/21 08:35:13;;;;;;;7.78;3.47;;;14.10;71.40;;;;;;5002692;28;20049;-90
2022/04/21 08:37:40;;;;;;;8.40;3.15;;;14.30;71.00;;;;;;5007745;28;20049;-90
2022/04/21 08:40:06;;;;;;;8.07;2.92;;;14.30;69.80;;;;;;4989503;28;20466;-90
2022/04/21 08:42:37;;;;;;;7.95;3.05;;;14.50;70.20;;;;;;5011609;28;20073;-90
2022/04/21 08:45:03;;;;;;;7.93;3.25;;;14.60;69.30;;;;;;5011849;28;20515;-90
2022/04/21 08:47:29;;;;;;;6.38;2.80;;;14.60;68.60;;;;;;4995465;28;20683;-90
2022/04/21 08:50:04;;;;;;;8.27;3.22;;;14.70;66.80;;;;;;4994976;28;20129;-90
2022/04/21 08:52:31;;;;;;;9.23;3.25;;;14.80;66.00;;;;;;5011208;28;20092;-90
2022/04/21 08:54:57;;;;;;;8.13;3.00;;;14.90;66.00;;;;;;5007551;28;20124;-89
2022/04/21 08:57:22;;;;;;;6.22;2.75;;;14.90;66.10;;;;;;5002523;28;20077;-90
2022/04/21 08:59:48;;;;;;;7.55;2.92;;;15.00;65.20;;;;;;5001859;28;20076;-90
2022/04/21 09:02:14;;;;;;;7.40;2.70;;;15.10;66.60;;;;;;4964622;28;20078;-90
2022/04/21 09:04:41;;;;;;;7.97;2.80;;;15.20;66.60;;;;;;4987140;28;20092;-90
2022/04/21 09:07:49;;;;;;;9.57;2.95;;;15.30;66.50;;;;;;5010666;28;20116;-90
2022/04/21 09:10:15;;;;;;;7.55;3.05;;;15.40;64.60;;;;;;5008369;28;20037;-90
2022/04/21 09:12:45;;;;;;;9.88;3.10;;;15.40;63.80;;;;;;5008873;28;20049;-90
2022/04/21 09:15:18;;;;;;;9.18;2.80;;;15.40;63.20;;;;;;4992133;28;20052;-90
2022/04/21 09:17:52;;;;;;;8.45;3.22;;;15.50;63.40;;;;;;5010441;28;20109;-90
2022/04/21 09:20:20;;;;;;;8.45;2.95;;;15.60;62.90;;;;;;5010987;28;20515;-90
2022/04/21 09:22:53;;;;;;;6.78;2.75;;;15.70;62.50;;;;;;5011214;28;20064;-90
2022/04/21 09:25:20;;;;;;;8.30;3.58;;;15.80;62.40;;;;;;4994507;28;20041;-89
2022/04/21 09:27:48;;;;;;;9.77;3.08;;;15.90;61.60;;;;;;5011167;28;20048;-90
2022/04/21 09:30:15;;;;;;;7.93;3.30;;;16.00;62.40;;;;;;5010557;28;20077;-90
2022/04/21 09:32:50;;;;;;;7.32;3.08;;;16.10;61.80;;;;;;5010567;28;20053;-90
2022/04/21 09:35:15;;;;;;;6.32;3.00;;;16.20;61.90;;;;;;4986939;28;20137;-90
2022/04/21 09:37:49;;;;;;;7.38;2.72;;;16.30;61.20;;;;;;5010914;28;20125;-90
2022/04/21 09:40:16;;;;;;;9.20;3.22;;;16.40;61.50;;;;;;5010630;28;20085;-90
2022/04/21 09:42:42;;;;;;;7.18;2.92;;;16.50;62.30;;;;;;5010684;28;20042;-90
2022/04/21 09:47:56;;;;;;;7.85;2.70;;;16.80;60.40;;;;;;5010816;28;20038;-90
2022/04/21 09:50:25;;;;;;;8.05;2.70;;;16.80;59.60;;;;;;5010417;28;20625;-90
2022/04/21 09:52:53;;;;;;;8.02;2.95;;;16.90;59.80;;;;;;5010613;28;20129;-90
2022/04/21 09:55:26;;;;;;;9.63;3.00;;;17.00;60.50;;;;;;5010607;28;20088;-90
2022/04/21 09:58:03;;;;;;;7.47;2.88;;;17.20;58.90;;;;;;4994461;28;20479;-90
2022/04/21 10:00:29;;;;;;;8.13;3.03;;;17.40;57.50;;;;;;5010273;28;20132;-90
2022/04/21 10:02:56;;;;;;;7.65;3.42;;;17.40;56.50;;;;;;4985203;28;20034;-90
2022/04/21 10:05:21;;;;;;;6.97;3.13;;;17.50;56.80;;;;;;4990360;28;20038;-90
2022/04/21 10:07:47;;;;;;;8.35;2.95;;;17.60;56.20;;;;;;4990979;28;20480;-90
2022/04/21 10:10:13;;;;;;;7.18;2.90;;;17.60;57.10;;;;;;4990707;28;20038;-90
2022/04/21 10:12:40;;;;;;;7.07;3.00;;;17.70;56.70;;;;;;4974620;28;20038;-90
2022/04/21 10:15:08;;;;;;;9.13;2.90;;;17.80;55.00;;;;;;4974618;28;20077;-90
2022/04/21 10:17:33;;;;;;;8.07;3.22;;;17.90;56.10;;;;;;4991024;28;20050;-90
2022/04/21 10:20:00;;;;;;;7.95;2.88;;;18.00;55.10;;;;;;4990585;28;20096;-89
2022/04/21 10:22:27;;;;;;;7.40;3.30;;;18.00;55.20;;;;;;4990579;28;20057;-90
2022/04/21 10:24:59;;;;;;;7.78;3.40;;;18.10;54.50;;;;;;4974614;28;20393;-90
2022/04/21 10:27:38;;;;;;;9.13;3.13;;;18.20;54.80;;;;;;4973551;28;20081;-90
2022/04/21 10:30:15;;;;;;;7.72;3.42;;;18.30;55.90;;;;;;4990263;28;20039;-90
2022/04/21 10:32:55;;;;;;;6.70;3.17;;;18.40;54.20;;;;;;4974298;28;20038;-90
2022/04/21 10:35:40;;;;;;;10.18;3.00;;;18.40;54.80;;;;;;4990705;28;20056;-90
2022/04/21 10:38:19;;;;;;;7.45;2.67;;;18.60;53.80;;;;;;4990575;28;20042;-90
2022/04/21 10:40:55;;;;;;;6.90;3.00;;;18.60;52.50;;;;;;4973944;28;20039;-90
2022/04/21 10:43:20;;;;;;;7.22;2.70;;;18.70;53.10;;;;;;4974277;28;20046;-90
2022/04/21 10:46:03;;;;;;;7.38;2.97;;;18.80;53.30;;;;;;4990396;28;20397;-90
2022/04/21 10:48:39;;;;;;;;;;;18.80;51.20;;;;;;4977976;28;20034;-90
2022/04/21 10:51:04;;;;;;;7.70;2.75;;;19.00;53.10;;;;;;4993175;28;20341;-90
2022/04/21 10:59:29;;;;;;;7.95;3.17;;;19.10;52.30;;;;;;4994410;28;20141;-90
2022/04/21 11:02:09;;;;;;;7.43;2.92;;;19.20;51.90;;;;;;4993712;28;20070;-90
2022/04/21 11:04:35;;;;;;;8.60;3.42;;;19.40;52.00;;;;;;4994094;28;20181;-90
2022/04/21 11:07:11;;;;;;;9.20;2.85;;;19.50;51.70;;;;;;4978147;28;20125;-90
2022/04/21 11:09:50;;;;;;;6.60;2.67;;;19.50;49.20;;;;;;4977610;28;20554;-90
2022/04/21 11:12:37;;;;;;;7.57;3.13;;;19.60;49.10;;;;;;4993922;28;20530;-90
2022/04/21 11:15:35;;;;;;;6.70;3.15;;;19.60;48.20;;;;;;4993941;28;20046;-90
2022/04/21 11:18:07;;;;;;;6.40;2.95;;;19.60;47.70;;;;;;4993746;28;20515;-90
2022/04/21 11:20:33;;;;;;;9.18;3.38;;;19.70;48.80;;;;;;4977346;28;20064;-90
2022/04/21 11:22:59;;;;;;;7.88;3.00;;;19.80;49.40;;;;;;4993733;28;20108;-90
2022/04/21 11:25:25;;;;;;;6.38;2.78;;;19.90;48.40;;;;;;4977562;28;20045;-90
2022/04/21 11:27:51;;;;;;;7.03;2.90;;;19.90;48.20;;;;;;4993103;28;20042;-90
2022/04/21 11:30:17;;;;;;;7.43;3.00;;;19.90;46.60;;;;;;4993226;28;20039;-91
2022/04/21 11:32:51;;;;;;;6.80;2.90;;;19.90;46.90;;;;;;4993464;28;20440;-90
2022/04/21 11:35:18;;;;;;;6.60;3.10;;;19.90;47.70;;;;;;4993533;28;20526;-90
2022/04/21 11:37:57;;;;;;;9.25;3.28;;;19.80;47.90;;;;;;4993646;28;20038;-90
2022/04/21 11:40:31;;;;;;;7.95;3.28;;;19.80;46.70;;;;;;4993170;28;20035;-90
2022/04/21 11:43:05;;;;;;;7.63;2.97;;;19.80;47.10;;;;;;4993247;28;20050;-90
2022/04/21 11:45:36;;;;;;;9.25;3.50;;;20.00;47.40;;;;;;5010016;28;20231;-90
2022/04/21 11:48:10;;;;;;;9.27;3.10;;;20.10;47.10;;;;;;4993412;28;20042;-90
2022/04/21 11:50:35;;;;;;;9.63;3.35;;;20.20;46.90;;;;;;4992872;28;20093;-90
2022/04/21 11:53:15;;;;;;;9.82;3.75;;;20.30;47.20;;;;;;4993575;28;20468;-90
2022/04/21 11:55:41;;;;;;;7.90;3.53;;;20.40;47.10;;;;;;4993543;28;20070;-90
2022/04/21 11:58:06;;;;;;;8.10;3.70;;;20.50;47.10;;;;;;4993345;28;20096;-91
2022/04/21 12:08:50;;;;;;;7.40;3.55;;;20.80;46.90;;;;;;4993411;28;20443;-90
2022/04/21 12:11:18;;;;;;;8.07;3.63;;;21.00;47.00;;;;;;4992568;28;20488;-90
2022/04/21 12:13:45;;;;;;;8.38;3.58;;;21.30;47.30;;;;;;4993165;28;20046;-90
2022/04/21 12:16:40;;;;;;;7.90;3.47;;;21.50;47.00;;;;;;4992739;28;20093;-90
2022/04/21 12:19:26;;;;;;;7.35;3.30;;;21.80;47.10;;;;;;4992674;28;20042;-90
2022/04/21 12:21:57;;;;;;;8.35;3.40;;;21.90;44.90;;;;;;4992388;28;20082;-90
2022/04/21 12:24:29;;;;;;;10.23;3.50;;;22.00;44.90;;;;;;4992620;28;20069;-90
2022/04/21 12:26:54;;;;;;;8.30;3.50;;;22.10;43.90;;;;;;4991099;28;20499;-90
2022/04/21 12:29:22;;;;;;;8.00;3.15;;;22.00;44.20;;;;;;4992603;28;20093;-90
2022/04/21 12:31:56;;;;;;;7.97;2.95;;;21.90;43.00;;;;;;4992272;28;20069;-90
2022/04/21 12:34:30;;;;;;;7.30;3.15;;;21.90;43.40;;;;;;4992587;28;20088;-90
2022/04/21 12:37:01;;;;;;;7.90;3.35;;;22.00;43.70;;;;;;4992612;28;20133;-90
2022/04/21 12:39:28;;;;;;;13.18;3.72;;;22.00;43.50;;;;;;4992492;28;20038;-90
2022/04/21 12:41:55;;;;;;;7.35;3.50;;;22.00;43.80;;;;;;4980139;28;20035;-91
2022/04/21 12:44:25;;;;;;;7.00;3.60;;;22.00;43.90;;;;;;4990373;28;20084;-90
2022/04/21 12:47:15;;;;;;;6.95;3.20;;;22.10;43.80;;;;;;4992344;28;20441;-90
2022/04/21 12:50:05;;;;;;;8.38;3.85;;;22.10;44.50;;;;;;4976383;28;20038;-91
2022/04/21 12:52:40;;;;;;;9.13;3.90;;;22.20;44.60;;;;;;4975812;28;20046;-91
2022/04/21 12:55:10;;;;;;;12.57;4.15;;;22.20;43.80;;;;;;4992434;28;20046;-91
2022/04/21 12:57:37;;;;;;;8.18;3.70;;;22.20;44.70;;;;;;4993314;28;20039;-90
2022/04/21 13:00:06;;;;;;;9.25;3.78;;;22.30;44.50;;;;;;4991660;28;20046;-90
2022/04/21 13:02:32;;;;;;;8.50;3.20;;;22.40;44.30;;;;;;4998215;28;20042;-91
2022/04/21 13:04:57;;;;;;;6.47;3.38;;;22.60;44.40;;;;;;4986984;28;20460;-90
2022/04/21 13:07:24;;;;;;;10.70;3.50;;;22.60;44.10;;;;;;5000524;28;20563;-91
2022/04/21 13:09:50;;;;;;;7.63;3.08;;;22.70;43.20;;;;;;5024256;28;20033;-90
2022/04/21 13:12:16;;;;;;;7.70;3.25;;;22.90;43.30;;;;;;4975486;28;20542;-91
2022/04/21 13:14:41;;;;;;;8.90;3.25;;;23.00;43.10;;;;;;4975082;28;20083;-90
2022/04/21 13:17:07;;;;;;;8.30;3.70;;;23.00;42.50;;;;;;4992024;28;20073;-90
2022/04/21 13:19:33;;;;;;;10.45;4.97;;;22.90;42.00;;;;;;4975786;28;20043;-90
2022/04/21 13:22:00;;;;;;;8.95;3.63;;;22.80;42.00;;;;;;5025528;28;20074;-91
2022/04/21 13:24:27;;;;;;;7.20;3.35;;;22.70;42.50;;;;;;5025247;28;20042;-90
2022/04/21 13:26:54;;;;;;;9.07;3.53;;;22.80;42.60;;;;;;5022419;28;20042;-90
2022/04/21 13:29:20;;;;;;;12.82;4.28;;;22.80;42.90;;;;;;4992755;28;20045;-90
2022/04/21 13:34:31;;;;;;;11.18;3.40;;;22.70;42.00;;;;;;4990787;28;20845;-90
2022/04/21 13:36:57;;;;;;;7.70;3.10;;;22.80;42.30;;;;;;4991135;28;20038;-90
2022/04/21 13:39:23;;;;;;;8.95;3.40;;;23.00;42.70;;;;;;4990885;28;20105;-90
2022/04/21 13:41:48;;;;;;;9.20;3.60;;;23.40;44.90;;;;;;4989959;28;20038;-90
2022/04/21 13:44:15;;;;;;;9.38;3.28;;;23.60;43.20;;;;;;4974926;28;20046;-91
2022/04/21 13:46:41;;;;;;;8.90;3.38;;;23.80;42.90;;;;;;4991838;28;20381;-90
2022/04/21 13:49:07;;;;;;;8.40;3.60;;;23.90;42.10;;;;;;4991050;28;20070;-90
2022/04/21 13:51:33;;;;;;;8.70;3.50;;;24.00;42.20;;;;;;4990144;28;20101;-90